createdAt,value
2023-01-25T00:00:00.642Z,15.50
2023-01-25T00:02:28.998Z,15.43
2023-01-25T00:04:55.755Z,15.34
2023-01-25T00:07:22.543Z,15.33
2023-01-25T00:09:49.274Z,15.33
2023-01-25T00:12:16.096Z,15.30
2023-01-25T00:14:42.900Z,15.36
2023-01-25T00:17:09.629Z,15.40
2023-01-25T00:19:37.717Z,15.45
2023-01-25T00:22:04.467Z,15.40
2023-01-25T00:24:31.751Z,15.34
2023-01-25T00:26:58.543Z,15.40
2023-01-25T00:29:25.329Z,15.39
2023-01-25T00:32:02.379Z,15.35
2023-01-25T00:34:47.673Z,15.38
2023-01-25T00:37:20.636Z,15.38
2023-01-25T00:39:47.438Z,15.37
2023-01-25T00:42:15.270Z,15.39
2023-01-25T00:44:42.350Z,15.41
2023-01-25T00:47:09.592Z,15.49
2023-01-25T00:49:36.327Z,15.44
2023-01-25T00:52:04.799Z,15.41
2023-01-25T00:54:31.569Z,15.45
2023-01-25T00:56:58.389Z,15.38
2023-01-25T00:59:25.604Z,15.39
2023-01-25T01:01:53.514Z,15.31
2023-01-25T01:04:21.001Z,15.32
2023-01-25T01:06:47.732Z,15.34
2023-01-25T01:09:17.477Z,15.39
2023-01-25T01:11:44.485Z,15.35
2023-01-25T01:14:11.397Z,15.34
2023-01-25T01:16:38.192Z,15.19
2023-01-25T01:19:05.504Z,15.21
2023-01-25T01:21:32.847Z,15.41
2023-01-25T01:23:59.664Z,15.30
2023-01-25T01:26:27.942Z,15.21
2023-01-25T01:28:54.678Z,15.20
2023-01-25T01:31:24.026Z,15.19
2023-01-25T01:33:52.648Z,15.15
2023-01-25T01:36:21.646Z,15.11
2023-01-25T01:38:48.864Z,15.13
2023-01-25T01:41:16.448Z,15.13
2023-01-25T01:43:44.954Z,15.14
2023-01-25T01:46:15.657Z,15.11
2023-01-25T01:48:47.293Z,15.09
2023-01-25T01:51:19.894Z,15.19
2023-01-25T01:53:50.870Z,15.20
2023-01-25T01:56:22.059Z,15.20
2023-01-25T01:58:52.996Z,15.31
2023-01-25T02:01:19.831Z,15.30
2023-01-25T02:03:48.348Z,15.33
2023-01-25T02:06:20.423Z,15.29
2023-01-25T02:08:47.590Z,15.29
2023-01-25T02:11:14.411Z,15.24
2023-01-25T02:13:41.509Z,15.20
2023-01-25T02:16:15.695Z,15.21
2023-01-25T02:18:42.484Z,15.17
2023-01-25T02:21:10.212Z,15.11
2023-01-25T02:23:45.011Z,15.02
2023-01-25T02:26:14.550Z,14.99
2023-01-25T02:28:46.878Z,15.00
2023-01-25T02:31:13.694Z,15.06
2023-01-25T02:33:40.463Z,15.12
2023-01-25T02:36:20.174Z,15.05
2023-01-25T02:38:51.620Z,15.12
2023-01-25T02:41:24.640Z,15.20
2023-01-25T02:43:51.671Z,15.17
2023-01-25T02:46:22.739Z,15.25
2023-01-25T02:48:49.631Z,15.28
2023-01-25T02:51:16.391Z,15.28
2023-01-25T02:53:43.170Z,15.24
2023-01-25T02:56:09.919Z,15.28
2023-01-25T02:58:38.006Z,15.28
2023-01-25T03:01:04.726Z,15.32
2023-01-25T03:03:31.474Z,15.36
2023-01-25T03:05:58.228Z,15.30
2023-01-25T03:08:24.968Z,15.21
2023-01-25T03:10:51.796Z,15.22
2023-01-25T03:13:18.628Z,15.23
2023-01-25T03:15:46.734Z,15.27
2023-01-25T03:18:13.488Z,15.16
2023-01-25T03:20:40.229Z,15.18
2023-01-25T03:23:06.923Z,15.21
2023-01-25T03:25:33.680Z,15.16
2023-01-25T03:28:00.376Z,15.29
2023-01-25T03:30:27.139Z,15.31
2023-01-25T03:32:55.222Z,15.36
2023-01-25T03:35:21.960Z,15.36
2023-01-25T03:37:48.623Z,15.39
2023-01-25T03:40:15.655Z,15.39
2023-01-25T03:42:42.408Z,15.47
2023-01-25T03:45:10.011Z,15.50
2023-01-25T03:47:36.902Z,15.43
2023-01-25T03:50:05.971Z,15.39
2023-01-25T03:52:32.676Z,15.41
2023-01-25T03:54:59.437Z,15.40
2023-01-25T03:57:26.163Z,15.46
2023-01-25T03:59:52.865Z,15.48
2023-01-25T04:02:19.684Z,15.46
2023-01-25T04:04:46.420Z,15.45
2023-01-25T04:07:14.511Z,15.38
2023-01-25T04:09:41.317Z,15.32
2023-01-25T04:12:08.072Z,15.32
2023-01-25T04:14:43.980Z,15.42
2023-01-25T04:17:11.209Z,15.41
2023-01-25T04:19:37.931Z,15.41
2023-01-25T04:22:04.686Z,15.45
2023-01-25T04:24:32.895Z,15.54
2023-01-25T04:26:59.662Z,15.66
2023-01-25T04:29:40.090Z,15.68
2023-01-25T04:32:08.068Z,15.58
2023-01-25T04:34:34.870Z,15.61
2023-01-25T04:37:01.576Z,15.79
2023-01-25T04:39:28.496Z,15.90
2023-01-25T04:41:56.679Z,15.92
2023-01-25T04:44:23.492Z,15.95
2023-01-25T04:46:50.239Z,15.69
2023-01-25T04:49:17.013Z,15.60
2023-01-25T04:51:43.750Z,15.66
2023-01-25T04:54:10.469Z,15.67
2023-01-25T04:56:37.157Z,15.66
2023-01-25T04:59:05.273Z,15.62
2023-01-25T05:01:32.033Z,15.63
2023-01-25T05:03:58.965Z,15.57
2023-01-25T05:06:25.998Z,15.56
2023-01-25T05:08:52.814Z,15.57
2023-01-25T05:11:19.566Z,15.63
2023-01-25T05:13:46.266Z,15.57
2023-01-25T05:16:14.469Z,15.59
2023-01-25T05:18:48.333Z,15.60
2023-01-25T05:21:15.820Z,15.55
2023-01-25T05:23:42.522Z,15.59
2023-01-25T05:26:09.291Z,15.51
2023-01-25T05:28:36.043Z,15.45
2023-01-25T05:31:04.210Z,15.40
2023-01-25T05:33:32.363Z,15.44
2023-01-25T05:35:59.355Z,15.51
2023-01-25T05:38:26.077Z,15.56
2023-01-25T05:40:52.792Z,15.62
2023-01-25T05:43:19.637Z,15.65
2023-01-25T05:45:52.729Z,15.69
2023-01-25T05:48:19.531Z,15.76
2023-01-25T05:50:47.629Z,15.86
2023-01-25T05:53:14.368Z,15.82
2023-01-25T05:55:41.222Z,15.80
2023-01-25T05:58:07.950Z,15.80
2023-01-25T06:00:34.718Z,15.72
2023-01-25T06:03:02.064Z,15.70
2023-01-25T06:05:28.914Z,15.69
2023-01-25T06:07:58.286Z,15.60
2023-01-25T06:10:25.214Z,15.48
2023-01-25T06:12:56.908Z,15.50
2023-01-25T06:15:23.635Z,15.52
2023-01-25T06:17:54.057Z,15.51
2023-01-25T06:20:20.855Z,15.54
2023-01-25T06:22:49.855Z,15.53
2023-01-25T06:25:18.174Z,15.43
2023-01-25T06:27:44.959Z,15.45
2023-01-25T06:30:12.134Z,15.40
2023-01-25T06:32:39.409Z,15.42
2023-01-25T06:35:06.818Z,15.35
2023-01-25T06:37:33.794Z,15.38
2023-01-25T06:40:00.686Z,15.31
2023-01-25T06:42:28.807Z,15.27
2023-01-25T06:44:55.508Z,15.30
2023-01-25T06:47:22.242Z,15.29
2023-01-25T06:49:49.048Z,15.31
2023-01-25T06:52:15.852Z,15.34
2023-01-25T06:54:42.787Z,15.37
2023-01-25T06:57:09.538Z,15.32
2023-01-25T06:59:37.745Z,15.33
2023-01-25T07:02:04.645Z,15.35
2023-01-25T07:04:31.348Z,15.34
2023-01-25T07:06:58.070Z,15.30
2023-01-25T07:09:24.860Z,15.32
2023-01-25T07:11:51.667Z,15.38
2023-01-25T07:14:18.542Z,15.33
2023-01-25T07:16:46.667Z,15.32
2023-01-25T07:19:13.511Z,15.29
2023-01-25T07:21:40.197Z,15.31
2023-01-25T07:24:07.310Z,15.29
2023-01-25T07:26:34.092Z,15.31
2023-01-25T07:29:00.915Z,15.32
2023-01-25T07:31:27.843Z,15.32
2023-01-25T07:33:57.399Z,15.37
2023-01-25T07:36:25.446Z,15.36
2023-01-25T07:38:53.513Z,15.41
2023-01-25T07:41:20.282Z,15.37
2023-01-25T07:43:46.945Z,15.40
2023-01-25T07:46:14.290Z,15.46
2023-01-25T07:48:45.208Z,15.41
2023-01-25T07:51:13.537Z,15.42
2023-01-25T07:53:41.462Z,15.38
2023-01-25T07:56:09.534Z,15.38
2023-01-25T07:58:36.659Z,15.45
2023-01-25T08:01:07.225Z,15.47
2023-01-25T08:03:34.061Z,15.50
2023-01-25T08:06:00.895Z,15.50
2023-01-25T08:08:28.999Z,15.49
2023-01-25T08:10:55.737Z,15.46
2023-01-25T08:13:22.536Z,15.47
2023-01-25T08:15:53.849Z,15.48
2023-01-25T08:18:20.562Z,15.47
2023-01-25T08:20:47.578Z,15.52
2023-01-25T08:23:14.399Z,15.59
2023-01-25T08:25:42.714Z,15.58
2023-01-25T08:28:09.417Z,15.62
2023-01-25T08:30:36.649Z,15.58
2023-01-25T08:33:04.631Z,15.59
2023-01-25T08:35:31.367Z,15.64
2023-01-25T08:37:58.093Z,15.65
2023-01-25T08:40:24.788Z,15.67
2023-01-25T08:42:53.017Z,15.65
2023-01-25T08:45:19.771Z,15.74
2023-01-25T08:47:46.464Z,15.71
2023-01-25T08:50:13.190Z,15.78
2023-01-25T08:52:39.912Z,15.93
2023-01-25T08:55:07.179Z,15.98
2023-01-25T08:57:33.862Z,15.87
2023-01-25T09:00:02.474Z,15.82
2023-01-25T09:02:29.353Z,15.87
2023-01-25T09:04:56.088Z,15.92
2023-01-25T09:07:23.200Z,15.91
2023-01-25T09:09:49.917Z,15.94
2023-01-25T09:12:16.597Z,16.01
2023-01-25T09:14:43.314Z,16.06
2023-01-25T09:17:11.411Z,16.13
2023-01-25T09:19:38.119Z,16.20
2023-01-25T09:22:04.882Z,16.23
2023-01-25T09:24:31.647Z,16.30
2023-01-25T09:27:00.121Z,16.33
2023-01-25T09:29:27.313Z,16.36
2023-01-25T09:31:54.149Z,16.50
2023-01-25T09:34:22.310Z,16.57
2023-01-25T09:36:49.056Z,16.69
2023-01-25T09:39:15.740Z,16.70
2023-01-25T09:42:14.986Z,16.81
2023-01-25T09:45:12.427Z,16.93
2023-01-25T09:47:48.455Z,16.94
2023-01-25T09:50:32.028Z,16.86
2023-01-25T09:53:22.534Z,16.96
2023-01-25T09:55:55.681Z,16.98
2023-01-25T09:58:30.695Z,16.99
2023-01-25T10:01:14.031Z,17.01
2023-01-25T10:03:48.801Z,17.03
2023-01-25T10:06:17.884Z,17.08
2023-01-25T10:08:51.904Z,17.09
2023-01-25T10:11:24.680Z,17.19
2023-01-25T10:13:52.847Z,17.16
2023-01-25T10:16:26.116Z,17.03
2023-01-25T10:19:01.504Z,17.08
2023-01-25T10:21:34.576Z,17.03
2023-01-25T10:24:20.317Z,17.10
2023-01-25T10:26:52.477Z,17.10
2023-01-25T10:29:20.743Z,17.14
2023-01-25T10:31:49.317Z,17.11
2023-01-25T10:34:20.575Z,17.04
2023-01-25T10:36:53.645Z,17.12
2023-01-25T10:39:20.810Z,17.18
2023-01-25T10:41:53.563Z,17.35
2023-01-25T10:44:20.338Z,17.48
2023-01-25T10:46:52.188Z,17.56
2023-01-25T10:49:24.162Z,17.62
2023-01-25T10:51:52.367Z,17.60
2023-01-25T10:54:19.058Z,17.58
2023-01-25T10:56:46.359Z,17.59
2023-01-25T10:59:20.196Z,17.59
2023-01-25T11:01:47.001Z,17.42
2023-01-25T11:04:37.759Z,17.50
2023-01-25T11:07:06.429Z,17.61
2023-01-25T11:09:36.762Z,17.62
2023-01-25T11:12:06.106Z,17.60
2023-01-25T11:14:33.736Z,17.56
2023-01-25T11:17:03.689Z,17.50
2023-01-25T11:19:34.051Z,17.47
2023-01-25T11:22:03.007Z,17.45
2023-01-25T11:24:32.579Z,17.55
2023-01-25T11:27:18.644Z,17.59
2023-01-25T11:29:46.436Z,17.62
2023-01-25T11:32:18.550Z,17.62
2023-01-25T11:34:45.233Z,17.66
2023-01-25T11:37:38.130Z,17.65
2023-01-25T11:40:17.728Z,17.59
2023-01-25T11:42:59.988Z,17.64
2023-01-25T11:46:02.380Z,17.74
2023-01-25T11:49:12.094Z,17.82
2023-01-25T11:51:43.334Z,17.94
2023-01-25T11:54:32.474Z,18.00
2023-01-25T11:57:10.091Z,18.03
2023-01-25T11:59:55.050Z,18.18
2023-01-25T12:02:50.271Z,18.27
2023-01-25T12:05:33.248Z,18.22
2023-01-25T12:08:12.319Z,18.20
2023-01-25T12:10:47.771Z,18.25
2023-01-25T12:13:22.867Z,18.30
2023-01-25T12:16:12.431Z,18.33
2023-01-25T12:18:57.658Z,18.44
2023-01-25T12:21:40.759Z,18.66
2023-01-25T12:24:28.313Z,18.66
2023-01-25T12:27:07.710Z,18.69
2023-01-25T12:29:40.684Z,18.66
2023-01-25T12:32:18.344Z,18.65
2023-01-25T12:34:51.164Z,18.63
2023-01-25T12:37:23.338Z,18.50
2023-01-25T12:39:55.867Z,18.53
2023-01-25T12:42:29.614Z,18.44
2023-01-25T12:45:02.673Z,18.57
2023-01-25T12:47:34.949Z,18.63
2023-01-25T12:50:12.911Z,18.98
2023-01-25T12:52:45.534Z,19.23
2023-01-25T12:55:14.765Z,19.28
2023-01-25T12:57:47.418Z,19.21
2023-01-25T13:00:25.955Z,19.06
2023-01-25T13:03:11.003Z,18.94
2023-01-25T13:05:45.586Z,18.84
2023-01-25T13:08:31.101Z,18.80
2023-01-25T13:11:08.616Z,18.62
2023-01-25T13:13:35.412Z,18.51
2023-01-25T13:16:40.795Z,18.41
2023-01-25T13:19:19.475Z,18.27
2023-01-25T13:21:47.365Z,18.16
2023-01-25T13:24:19.870Z,18.10
2023-01-25T13:26:58.529Z,18.06
2023-01-25T13:29:44.016Z,18.01
2023-01-25T13:32:14.150Z,17.98
2023-01-25T13:34:57.531Z,18.00
2023-01-25T13:37:26.564Z,18.00
2023-01-25T13:39:54.491Z,17.98
2023-01-25T13:42:23.573Z,17.97
2023-01-25T13:44:53.459Z,17.97
2023-01-25T13:47:23.758Z,17.97
2023-01-25T13:49:56.663Z,17.92
2023-01-25T13:52:24.870Z,17.96
2023-01-25T13:54:55.903Z,17.92
2023-01-25T13:57:25.941Z,17.56
2023-01-25T14:00:09.864Z,17.63
2023-01-25T14:02:41.774Z,17.72
2023-01-25T14:05:17.873Z,17.86
2023-01-25T14:07:47.601Z,17.98
2023-01-25T14:10:17.992Z,17.99
2023-01-25T14:12:45.104Z,18.06
2023-01-25T14:15:20.267Z,18.11
2023-01-25T14:18:04.652Z,18.17
2023-01-25T14:20:31.829Z,18.06
2023-01-25T14:22:58.511Z,18.16
2023-01-25T14:25:25.297Z,18.17
2023-01-25T14:27:54.648Z,18.29
2023-01-25T14:30:24.902Z,18.24
2023-01-25T14:32:54.983Z,17.94
2023-01-25T14:35:54.181Z,18.08
2023-01-25T14:38:26.114Z,17.89
2023-01-25T14:40:56.822Z,18.04
2023-01-25T14:43:25.188Z,17.89
2023-01-25T14:45:51.990Z,17.61
2023-01-25T14:48:40.845Z,17.66
2023-01-25T14:51:18.332Z,17.75
2023-01-25T14:53:48.822Z,17.67
2023-01-25T14:56:29.738Z,17.75
2023-01-25T14:58:59.803Z,17.79
2023-01-25T15:01:32.859Z,17.71
2023-01-25T15:04:01.135Z,17.71
2023-01-25T15:06:28.019Z,17.80
2023-01-25T15:08:54.948Z,17.61
2023-01-25T15:11:28.699Z,17.73
2023-01-25T15:14:01.729Z,17.31
2023-01-25T15:16:33.390Z,17.28
2023-01-25T15:19:01.543Z,17.51
2023-01-25T15:21:30.535Z,17.35
2023-01-25T15:23:59.292Z,17.43
2023-01-25T15:26:27.804Z,17.42
2023-01-25T15:28:56.937Z,17.51
2023-01-25T15:31:26.443Z,17.26
2023-01-25T15:33:54.116Z,16.93
2023-01-25T15:36:22.488Z,17.11
2023-01-25T15:38:49.214Z,17.12
2023-01-25T15:41:15.924Z,17.19
2023-01-25T15:43:42.837Z,17.26
2023-01-25T15:46:16.666Z,17.49
2023-01-25T15:48:45.349Z,17.46
2023-01-25T15:51:12.577Z,17.11
2023-01-25T15:53:40.785Z,17.10
2023-01-25T15:56:13.975Z,17.32
2023-01-25T15:58:42.732Z,17.23
2023-01-25T16:01:10.124Z,17.37
2023-01-25T16:03:36.912Z,17.08
2023-01-25T16:06:07.140Z,17.22
2023-01-25T16:08:36.879Z,17.18
2023-01-25T16:11:04.913Z,17.17
2023-01-25T16:13:31.603Z,16.98
2023-01-25T16:16:00.240Z,17.13
2023-01-25T16:18:26.916Z,17.25
2023-01-25T16:20:53.605Z,17.28
2023-01-25T16:23:20.271Z,17.27
2023-01-25T16:25:48.609Z,17.09
2023-01-25T16:28:17.434Z,16.56
2023-01-25T16:30:44.245Z,16.55
2023-01-25T16:33:11.061Z,16.70
2023-01-25T16:35:38.851Z,16.68
2023-01-25T16:38:05.599Z,16.68
2023-01-25T16:40:34.915Z,16.44
2023-01-25T16:43:01.569Z,16.39
2023-01-25T16:45:29.814Z,16.16
2023-01-25T16:47:56.464Z,16.12
2023-01-25T16:50:23.729Z,16.09
2023-01-25T16:52:50.389Z,16.06
2023-01-25T16:55:18.612Z,15.87
2023-01-25T16:57:50.331Z,15.80
2023-01-25T17:00:17.762Z,15.69
2023-01-25T17:02:58.272Z,15.72
2023-01-25T17:05:26.153Z,15.62
2023-01-25T17:07:52.908Z,15.43
2023-01-25T17:10:19.890Z,15.39
2023-01-25T17:12:46.645Z,15.48
2023-01-25T17:15:13.315Z,15.39
2023-01-25T17:17:40.048Z,15.07
2023-01-25T17:20:10.416Z,15.26
2023-01-25T17:22:37.372Z,15.20
2023-01-25T17:25:04.361Z,15.05
2023-01-25T17:27:31.075Z,15.26
2023-01-25T17:29:57.766Z,15.25
2023-01-25T17:32:24.689Z,15.25
2023-01-25T17:34:51.466Z,15.20
2023-01-25T17:37:19.620Z,15.18
2023-01-25T17:39:46.278Z,15.11
2023-01-25T17:42:12.940Z,15.01
2023-01-25T17:44:39.599Z,14.99
2023-01-25T17:47:06.324Z,14.91
2023-01-25T17:49:32.987Z,14.76
2023-01-25T17:51:59.638Z,14.76
2023-01-25T17:54:27.719Z,14.74
2023-01-25T17:56:54.400Z,14.69
2023-01-25T17:59:21.186Z,14.68
2023-01-25T18:01:48.021Z,14.70
2023-01-25T18:04:14.714Z,14.68
2023-01-25T18:06:41.426Z,14.71
2023-01-25T18:09:08.423Z,14.83
2023-01-25T18:11:38.318Z,14.85
2023-01-25T18:14:08.454Z,14.71
2023-01-25T18:16:37.462Z,14.73
2023-01-25T18:19:04.744Z,14.57
2023-01-25T18:21:32.794Z,14.56
2023-01-25T18:24:01.905Z,14.52
2023-01-25T18:26:33.173Z,14.43
2023-01-25T18:29:22.001Z,14.41
2023-01-25T18:31:48.700Z,14.36
2023-01-25T18:34:15.466Z,14.26
2023-01-25T18:36:42.177Z,14.10
2023-01-25T18:39:09.048Z,14.10
2023-01-25T18:41:35.698Z,14.12
2023-01-25T18:44:03.922Z,14.00
2023-01-25T18:46:30.741Z,13.91
2023-01-25T18:48:57.436Z,14.00
2023-01-25T18:51:24.168Z,13.92
2023-01-25T18:53:50.852Z,13.85
2023-01-25T18:56:19.977Z,13.86
2023-01-25T18:58:47.271Z,13.91
2023-01-25T19:01:17.811Z,13.84
2023-01-25T19:03:46.288Z,13.81
2023-01-25T19:06:13.439Z,13.83
2023-01-25T19:08:40.355Z,13.63
2023-01-25T19:11:09.375Z,13.49
2023-01-25T19:13:38.204Z,13.55
2023-01-25T19:16:07.674Z,13.55
2023-01-25T19:18:37.576Z,13.63
2023-01-25T19:21:08.051Z,13.67
2023-01-25T19:23:36.603Z,13.45
2023-01-25T19:26:03.913Z,13.50
2023-01-25T19:28:30.613Z,13.45
2023-01-25T19:30:57.523Z,13.36
2023-01-25T19:33:24.231Z,13.47
2023-01-25T19:36:00.641Z,13.56
2023-01-25T19:38:27.550Z,13.49
2023-01-25T19:40:54.310Z,13.45
2023-01-25T19:43:21.044Z,13.42
2023-01-25T19:45:47.698Z,13.36
2023-01-25T19:48:14.380Z,13.06
2023-01-25T19:50:41.101Z,13.01
2023-01-25T19:53:09.134Z,12.90
2023-01-25T19:55:35.768Z,12.87
2023-01-25T19:58:02.423Z,12.87
2023-01-25T20:00:31.792Z,12.85
2023-01-25T20:03:10.687Z,12.93
2023-01-25T20:05:42.499Z,12.95
2023-01-25T20:08:10.500Z,12.94
2023-01-25T20:10:37.186Z,12.96
2023-01-25T20:13:03.856Z,12.99
2023-01-25T20:15:33.567Z,12.96
2023-01-25T20:18:00.224Z,12.94
2023-01-25T20:20:26.862Z,12.85
2023-01-25T20:22:53.493Z,12.62
2023-01-25T20:25:21.516Z,12.42
2023-01-25T20:27:48.149Z,12.33
2023-01-25T20:30:15.024Z,12.30
2023-01-25T20:32:41.839Z,12.28
2023-01-25T20:35:09.671Z,12.35
2023-01-25T20:37:36.478Z,12.38
2023-01-25T20:40:03.256Z,12.49
2023-01-25T20:42:31.327Z,12.44
2023-01-25T20:44:57.964Z,12.37
2023-01-25T20:47:24.700Z,12.28
2023-01-25T20:49:51.497Z,12.22
2023-01-25T20:52:18.128Z,12.12
2023-01-25T20:54:44.769Z,11.90
2023-01-25T20:57:11.608Z,11.67
2023-01-25T20:59:39.641Z,11.58
2023-01-25T21:02:06.877Z,11.52
2023-01-25T21:04:33.749Z,11.54
2023-01-25T21:07:00.449Z,11.52
2023-01-25T21:09:27.067Z,11.43
2023-01-25T21:11:53.757Z,11.46
2023-01-25T21:14:20.415Z,11.30
2023-01-25T21:16:48.538Z,11.29
2023-01-25T21:19:15.181Z,11.12
2023-01-25T21:21:41.848Z,10.98
2023-01-25T21:24:09.222Z,11.02
2023-01-25T21:26:36.579Z,11.05
2023-01-25T21:29:05.339Z,11.06
2023-01-25T21:31:33.557Z,11.12
2023-01-25T21:34:02.369Z,11.16
2023-01-25T21:36:29.464Z,11.10
2023-01-25T21:38:56.467Z,11.01
2023-01-25T21:41:25.059Z,11.07
2023-01-25T21:43:53.405Z,11.01
2023-01-25T21:46:20.552Z,10.85
2023-01-25T21:48:47.165Z,10.82
2023-01-25T21:51:15.151Z,10.80
2023-01-25T21:53:41.852Z,10.85
2023-01-25T21:56:08.538Z,10.96
2023-01-25T21:58:35.168Z,11.02
2023-01-25T22:01:03.728Z,11.09
2023-01-25T22:03:30.393Z,11.01
2023-01-25T22:05:57.031Z,10.87
2023-01-25T22:08:25.031Z,10.67
2023-01-25T22:10:51.678Z,10.58
2023-01-25T22:13:18.357Z,10.56
2023-01-25T22:15:45.108Z,10.61
2023-01-25T22:18:11.784Z,10.59
2023-01-25T22:20:38.434Z,10.51
2023-01-25T22:23:05.065Z,10.41
2023-01-25T22:25:33.226Z,10.39
2023-01-25T22:28:00.185Z,10.44
2023-01-25T22:30:26.985Z,10.43
2023-01-25T22:32:53.656Z,10.40
2023-01-25T22:35:20.541Z,10.47
2023-01-25T22:37:47.171Z,10.43
2023-01-25T22:40:14.240Z,10.38
2023-01-25T22:42:42.307Z,10.35
2023-01-25T22:45:09.709Z,10.36
2023-01-25T22:47:36.417Z,10.45
2023-01-25T22:50:04.188Z,10.38
2023-01-25T22:52:32.761Z,10.32
2023-01-25T22:54:59.531Z,10.25
2023-01-25T22:57:26.228Z,10.14
2023-01-25T22:59:54.337Z,10.02
2023-01-25T23:02:21.342Z,9.97
2023-01-25T23:04:48.027Z,10.02
2023-01-25T23:07:14.764Z,10.04
2023-01-25T23:09:41.526Z,10.19
2023-01-25T23:12:08.342Z,10.19
2023-01-25T23:14:35.170Z,10.19
2023-01-25T23:17:03.320Z,10.04
2023-01-25T23:19:30.190Z,9.90
2023-01-25T23:21:56.851Z,9.88
2023-01-25T23:24:23.583Z,9.91
2023-01-25T23:26:50.237Z,10.02
2023-01-25T23:29:16.910Z,9.98
2023-01-25T23:31:43.643Z,9.96
2023-01-25T23:34:11.822Z,10.01
2023-01-25T23:36:38.660Z,10.03
2023-01-25T23:39:05.589Z,9.93
2023-01-25T23:41:32.563Z,9.79
2023-01-25T23:43:59.290Z,9.70
2023-01-25T23:46:26.296Z,9.66
2023-01-25T23:48:53.025Z,9.62
2023-01-25T23:51:21.283Z,9.70
2023-01-25T23:53:48.279Z,9.78
2023-01-25T23:56:17.059Z,9.86
2023-01-25T23:58:44.308Z,9.63
